Time;durP1;ratioP1;P1;durP2;ratioP2;P2;SDS_P1;SDS_P2;PMS_P1;PMS_P2;Temp;Humidity;BMP_temperature;BMP_pressure;BME280_temperature;BME280_humidity;BME280_pressure;Samples;Min_cycle;Max_cycle;Signal;HPM_P1;HPM_P2
2021/10/21 00:02:20;;;;;;;30.80;18.88;;;;;;;;;;5031832;28;20021;-64
2021/10/21 00:04:46;;;;;;;31.60;19.33;;;;;;;;;;5031251;28;20030;-62
2021/10/21 00:07:12;;;;;;;32.78;19.30;;;;;;;;;;5031908;28;20465;-66
2021/10/21 00:09:38;;;;;;;29.52;18.52;;;;;;;;;;5031658;28;20084;-63
2021/10/21 00:12:05;;;;;;;31.23;19.33;;;;;;;;;;5031345;28;20025;-63
2021/10/21 00:14:31;;;;;;;32.65;19.33;;;;;;;;;;5031343;28;20025;-63
2021/10/21 00:16:57;;;;;;;34.97;19.33;;;;;;;;;;5030074;28;20041;-62
2021/10/21 00:19:23;;;;;;;32.15;19.27;;;;;;;;;;5031656;28;20550;-61
2021/10/21 00:21:50;;;;;;;29.38;19.33;;;;;;;;;;5031428;28;20053;-62
2021/10/21 00:24:16;;;;;;;32.58;19.35;;;;;;;;;;5031621;28;20029;-62
2021/10/21 00:26:43;;;;;;;29.48;19.15;;;;;;;;;;5031992;28;20041;-62
2021/10/21 00:29:09;;;;;;;30.77;18.45;;;;;;;;;;5031935;28;20029;-62
2021/10/21 00:31:35;;;;;;;32.22;19.67;;;;;;;;;;5031628;28;20040;-62
2021/10/21 00:34:01;;;;;;;30.33;18.58;;;;;;;;;;5031827;28;20151;-66
2021/10/21 00:36:29;;;;;;;31.10;18.88;;;;;;;;;;5031506;28;20061;-61
2021/10/21 00:38:55;;;;;;;30.77;18.98;;;;;;;;;;5031183;28;20076;-62
2021/10/21 00:41:21;;;;;;;30.25;19.13;;;;;;;;;;5031387;28;20026;-62
2021/10/21 00:43:47;;;;;;;32.83;18.75;;;;;;;;;;5031340;28;20033;-62
2021/10/21 00:46:15;;;;;;;28.13;18.35;;;;;;;;;;5031350;28;20026;-65
2021/10/21 00:48:41;;;;;;;33.35;18.60;;;;;;;;;;5031539;28;20037;-61
2021/10/21 00:51:11;;;;;;;26.88;17.70;;;;;;;;;;5031188;28;20121;-62
2021/10/21 00:53:37;;;;;;;31.50;19.20;;;;;;;;;;5031143;28;20100;-62
2021/10/21 00:56:03;;;;;;;30.05;18.58;;;;;;;;;;5031654;28;20029;-65
2021/10/21 00:58:30;;;;;;;29.23;18.13;;;;;;;;;;5031100;28;20116;-63
2021/10/21 01:00:56;;;;;;;35.05;19.63;;;;;;;;;;5031104;28;20023;-65
2021/10/21 01:03:22;;;;;;;29.42;18.92;;;;;;;;;;5031226;28;20029;-62
2021/10/21 01:05:48;;;;;;;30.23;18.70;;;;;;;;;;5031276;28;20109;-62
2021/10/21 01:08:14;;;;;;;30.17;18.17;;;;;;;;;;5031346;28;20025;-62
2021/10/21 01:10:40;;;;;;;29.30;18.02;;;;;;;;;;5031016;28;20033;-62
2021/10/21 01:13:06;;;;;;;28.67;17.58;;;;;;;;;;5030795;28;20491;-64
2021/10/21 01:15:33;;;;;;;29.90;19.00;;;;;;;;;;5031015;28;20168;-62
2021/10/21 01:17:59;;;;;;;28.90;18.50;;;;;;;;;;5030564;28;20046;-62
2021/10/21 01:20:27;;;;;;;27.80;17.75;;;;;;;;;;5030723;28;20081;-62
2021/10/21 01:22:53;;;;;;;29.58;17.95;;;;;;;;;;5030917;28;20033;-62
2021/10/21 01:25:20;;;;;;;27.02;18.05;;;;;;;;;;5030613;28;20029;-62
2021/10/21 01:27:46;;;;;;;25.42;17.02;;;;;;;;;;5030776;28;20037;-62
2021/10/21 01:30:23;;;;;;;27.10;17.17;;;;;;;;;;5030971;28;20037;-64
2021/10/21 01:32:50;;;;;;;27.90;17.58;;;;;;;;;;5030948;28;20057;-62
2021/10/21 01:35:16;;;;;;;27.35;16.70;;;;;;;;;;5030785;28;20477;-61
2021/10/21 01:37:43;;;;;;;28.00;16.55;;;;;;;;;;5030522;28;20542;-62
2021/10/21 01:40:11;;;;;;;26.65;16.48;;;;;;;;;;5030712;28;20141;-63
2021/10/21 01:42:43;;;;;;;24.02;15.43;;;;;;;;;;5030582;28;20148;-62
2021/10/21 01:45:19;;;;;;;25.38;15.40;;;;;;;;;;5030707;28;20100;-66
2021/10/21 01:47:45;;;;;;;25.30;15.32;;;;;;;;;;5030802;28;20041;-64
2021/10/21 01:50:12;;;;;;;22.15;15.60;;;;;;;;;;5030540;28;20117;-67
2021/10/21 01:52:39;;;;;;;27.88;17.17;;;;;;;;;;5030620;28;20087;-63
2021/10/21 01:55:06;;;;;;;25.48;15.98;;;;;;;;;;5030850;28;20083;-62
2021/10/21 01:57:32;;;;;;;25.90;16.95;;;;;;;;;;5030596;28;20072;-63
2021/10/21 01:59:58;;;;;;;24.30;15.73;;;;;;;;;;5030546;28;20022;-63
2021/10/21 02:02:24;;;;;;;23.38;14.98;;;;;;;;;;5032003;28;20033;-63
2021/10/21 02:04:50;;;;;;;25.00;16.33;;;;;;;;;;5032230;28;20358;-62
2021/10/21 02:07:17;;;;;;;26.05;15.20;;;;;;;;;;5031059;28;20357;-65
2021/10/21 02:09:43;;;;;;;24.10;16.33;;;;;;;;;;5030178;28;20040;-63
2021/10/21 02:12:09;;;;;;;25.90;15.48;;;;;;;;;;5030173;28;20034;-64
2021/10/21 02:14:35;;;;;;;25.15;15.52;;;;;;;;;;5030166;28;20031;-62
2021/10/21 02:17:02;;;;;;;24.13;15.43;;;;;;;;;;5030379;28;20484;-63
2021/10/21 02:19:28;;;;;;;24.13;14.73;;;;;;;;;;5030163;28;20440;-62
2021/10/21 02:21:54;;;;;;;23.42;14.07;;;;;;;;;;5030386;28;20030;-65
2021/10/21 02:24:20;;;;;;;22.55;14.77;;;;;;;;;;5030507;28;20026;-62
2021/10/21 02:26:47;;;;;;;22.55;15.02;;;;;;;;;;5031032;28;20064;-62
2021/10/21 02:29:13;;;;;;;20.75;13.32;;;;;;;;;;5034046;28;20026;-64
2021/10/21 02:31:39;;;;;;;21.02;13.82;;;;;;;;;;5034117;28;20374;-62
2021/10/21 02:34:05;;;;;;;23.02;14.15;;;;;;;;;;5034032;28;20366;-65
2021/10/21 02:36:31;;;;;;;25.63;13.95;;;;;;;;;;5034143;28;20026;-62
2021/10/21 02:38:58;;;;;;;24.85;14.02;;;;;;;;;;5033683;28;20401;-62
2021/10/21 02:41:24;;;;;;;22.20;14.30;;;;;;;;;;5033964;28;20452;-62
2021/10/21 02:43:50;;;;;;;22.15;14.18;;;;;;;;;;5033994;28;20382;-66
2021/10/21 02:46:16;;;;;;;23.63;14.25;;;;;;;;;;5033878;28;20061;-62
2021/10/21 02:48:42;;;;;;;23.17;14.25;;;;;;;;;;5033742;28;20037;-65
2021/10/21 02:51:08;;;;;;;23.90;14.75;;;;;;;;;;5033999;28;20065;-62
2021/10/21 02:53:34;;;;;;;22.08;12.90;;;;;;;;;;5033392;28;20041;-66
2021/10/21 02:56:00;;;;;;;20.98;13.90;;;;;;;;;;5033687;28;20436;-63
2021/10/21 02:58:27;;;;;;;22.10;13.32;;;;;;;;;;5033377;28;20115;-63
2021/10/21 03:00:53;;;;;;;23.35;13.82;;;;;;;;;;5033292;28;20535;-63
2021/10/21 03:03:19;;;;;;;23.35;13.77;;;;;;;;;;5033576;28;20022;-64
2021/10/21 03:05:45;;;;;;;22.23;13.30;;;;;;;;;;5033465;28;20105;-63
2021/10/21 03:08:11;;;;;;;23.10;14.30;;;;;;;;;;5033232;28;20013;-62
2021/10/21 03:10:37;;;;;;;21.08;13.43;;;;;;;;;;5033138;28;20026;-63
2021/10/21 03:13:03;;;;;;;21.75;13.77;;;;;;;;;;5033075;28;20097;-66
2021/10/21 03:15:29;;;;;;;21.05;13.68;;;;;;;;;;5033040;28;20087;-66
2021/10/21 03:17:55;;;;;;;23.80;14.30;;;;;;;;;;5031510;28;20049;-66
2021/10/21 03:20:22;;;;;;;23.23;14.88;;;;;;;;;;5032565;28;20087;-63
2021/10/21 03:22:48;;;;;;;27.73;15.95;;;;;;;;;;5032605;28;20103;-65
2021/10/21 03:25:14;;;;;;;25.92;15.00;;;;;;;;;;5032854;28;20127;-63
2021/10/21 03:27:40;;;;;;;24.75;14.70;;;;;;;;;;5033105;28;20116;-63
2021/10/21 03:30:07;;;;;;;22.55;15.55;;;;;;;;;;5032679;28;20092;-64
2021/10/21 03:32:33;;;;;;;22.70;14.50;;;;;;;;;;5032697;28;20370;-62
2021/10/21 03:34:59;;;;;;;23.80;15.35;;;;;;;;;;5032776;28;20365;-65
2021/10/21 03:37:25;;;;;;;24.75;14.75;;;;;;;;;;5031216;28;20083;-66
2021/10/21 03:39:51;;;;;;;24.88;14.98;;;;;;;;;;5032827;28;20119;-65
2021/10/21 03:42:18;;;;;;;22.38;14.27;;;;;;;;;;5032552;28;20044;-66
2021/10/21 03:44:44;;;;;;;23.25;14.73;;;;;;;;;;5032473;28;20499;-67
2021/10/21 03:47:11;;;;;;;22.50;13.93;;;;;;;;;;5032611;28;20085;-65
2021/10/21 03:49:37;;;;;;;24.23;14.75;;;;;;;;;;5032332;28;20033;-63
2021/10/21 03:52:04;;;;;;;22.80;13.60;;;;;;;;;;5032071;28;20469;-63
2021/10/21 03:54:30;;;;;;;22.23;14.68;;;;;;;;;;5032362;28;20469;-63
2021/10/21 03:56:56;;;;;;;23.38;14.50;;;;;;;;;;5031974;28;20040;-63
2021/10/21 03:59:22;;;;;;;22.00;13.50;;;;;;;;;;5032358;28;20063;-63
2021/10/21 04:01:49;;;;;;;22.67;14.77;;;;;;;;;;5032358;28;20163;-62
2021/10/21 04:04:15;;;;;;;23.83;14.10;;;;;;;;;;5032365;28;20388;-62
2021/10/21 04:06:41;;;;;;;23.70;14.30;;;;;;;;;;5032079;28;20432;-63
2021/10/21 04:09:08;;;;;;;24.80;14.10;;;;;;;;;;5031906;28;20101;-66
2021/10/21 04:11:34;;;;;;;24.20;13.85;;;;;;;;;;5032161;28;20492;-63
2021/10/21 04:14:00;;;;;;;21.83;14.05;;;;;;;;;;5031755;28;20029;-65
2021/10/21 04:16:26;;;;;;;25.42;14.32;;;;;;;;;;5031843;28;20043;-63
2021/10/21 04:18:53;;;;;;;23.63;13.77;;;;;;;;;;5031554;28;20058;-64
2021/10/21 04:21:19;;;;;;;25.85;13.57;;;;;;;;;;5032025;28;20030;-66
2021/10/21 04:23:45;;;;;;;20.67;13.60;;;;;;;;;;5031594;28;20026;-63
2021/10/21 04:26:11;;;;;;;21.73;13.50;;;;;;;;;;5032279;28;20025;-64
2021/10/21 04:28:37;;;;;;;22.30;13.23;;;;;;;;;;5031716;28;20436;-64
2021/10/21 04:31:04;;;;;;;20.70;12.65;;;;;;;;;;5033124;28;20508;-64
2021/10/21 04:33:31;;;;;;;22.42;13.07;;;;;;;;;;5031590;28;20469;-64
2021/10/21 04:35:57;;;;;;;21.27;12.85;;;;;;;;;;5031560;28;20135;-63
2021/10/21 04:38:23;;;;;;;22.95;13.77;;;;;;;;;;5031238;28;20055;-63
2021/10/21 04:40:49;;;;;;;20.77;12.90;;;;;;;;;;5031158;28;20032;-64
2021/10/21 04:43:15;;;;;;;25.40;13.32;;;;;;;;;;5031218;28;20036;-64
2021/10/21 04:45:41;;;;;;;28.25;14.68;;;;;;;;;;5031211;28;20542;-67
2021/10/21 04:48:07;;;;;;;23.35;13.52;;;;;;;;;;5031202;28;20429;-64
2021/10/21 04:50:33;;;;;;;24.05;13.60;;;;;;;;;;5031071;28;20029;-68
2021/10/21 04:52:59;;;;;;;26.92;14.43;;;;;;;;;;5031341;28;20029;-67
2021/10/21 04:55:26;;;;;;;22.92;13.95;;;;;;;;;;5031027;28;20029;-64
2021/10/21 04:57:52;;;;;;;23.55;13.65;;;;;;;;;;5031171;28;20028;-67
2021/10/21 05:00:19;;;;;;;22.40;14.15;;;;;;;;;;5030984;28;20108;-67
2021/10/21 05:02:46;;;;;;;26.10;13.98;;;;;;;;;;5031104;28;20437;-65
2021/10/21 05:05:12;;;;;;;24.52;13.25;;;;;;;;;;5031129;28;20500;-62
2021/10/21 05:07:38;;;;;;;21.83;13.35;;;;;;;;;;5030817;28;20068;-63
2021/10/21 05:10:05;;;;;;;22.25;13.30;;;;;;;;;;5030736;28;20116;-66
2021/10/21 05:12:31;;;;;;;25.13;13.40;;;;;;;;;;5030821;28;20017;-66
2021/10/21 05:14:57;;;;;;;25.42;13.48;;;;;;;;;;5031017;28;20033;-63
2021/10/21 05:17:23;;;;;;;24.17;13.85;;;;;;;;;;5030747;28;20427;-66
2021/10/21 05:19:50;;;;;;;23.92;13.00;;;;;;;;;;5030936;28;20026;-64
2021/10/21 05:22:16;;;;;;;26.00;13.77;;;;;;;;;;5030866;28;20029;-63
2021/10/21 05:24:42;;;;;;;20.85;13.43;;;;;;;;;;5030542;28;20168;-66
2021/10/21 05:27:11;;;;;;;23.33;13.23;;;;;;;;;;5030693;28;20021;-65
2021/10/21 05:29:37;;;;;;;24.25;14.25;;;;;;;;;;5030545;28;20110;-66
2021/10/21 05:32:06;;;;;;;25.02;14.45;;;;;;;;;;5033056;28;20036;-64
2021/10/21 05:34:33;;;;;;;22.73;14.13;;;;;;;;;;5039521;28;20025;-67
2021/10/21 05:37:07;;;;;;;23.42;14.63;;;;;;;;;;5038606;28;20100;-63
2021/10/21 05:39:36;;;;;;;28.85;14.95;;;;;;;;;;5040660;28;20070;-63
2021/10/21 05:42:05;;;;;;;28.42;16.13;;;;;;;;;;5039555;28;20025;-66
2021/10/21 05:44:34;;;;;;;30.30;17.35;;;;;;;;;;5042945;28;20383;-63
2021/10/21 05:47:00;;;;;;;28.55;16.27;;;;;;;;;;5043028;28;20052;-62
2021/10/21 05:49:26;;;;;;;31.33;16.65;;;;;;;;;;5040005;28;20030;-68
2021/10/21 05:51:52;;;;;;;26.52;17.25;;;;;;;;;;5040703;28;20033;-64
2021/10/21 05:54:18;;;;;;;26.17;15.85;;;;;;;;;;5041802;28;20045;-66
2021/10/21 05:56:54;;;;;;;27.48;16.35;;;;;;;;;;5040700;28;20456;-63
2021/10/21 05:59:20;;;;;;;32.00;17.17;;;;;;;;;;5039172;28;20029;-63
2021/10/21 06:01:46;;;;;;;27.77;16.35;;;;;;;;;;5039345;28;20029;-63
2021/10/21 06:04:12;;;;;;;25.88;16.17;;;;;;;;;;5046537;28;20032;-68
2021/10/21 06:06:42;;;;;;;27.83;16.35;;;;;;;;;;5040374;28;20087;-65
2021/10/21 06:09:08;;;;;;;26.13;15.98;;;;;;;;;;5042073;28;20029;-63
2021/10/21 06:11:37;;;;;;;27.58;16.05;;;;;;;;;;5043966;28;20033;-63
2021/10/21 06:14:05;;;;;;;26.80;15.40;;;;;;;;;;5041976;28;20183;-64
2021/10/21 06:16:31;;;;;;;28.38;16.77;;;;;;;;;;5042395;28;20051;-67
2021/10/21 06:18:57;;;;;;;28.58;16.95;;;;;;;;;;5043379;28;20567;-64
2021/10/21 06:21:24;;;;;;;27.30;16.90;;;;;;;;;;5042232;28;20099;-64
2021/10/21 06:23:51;;;;;;;29.63;17.45;;;;;;;;;;5042508;28;20051;-63
2021/10/21 06:26:17;;;;;;;31.92;18.73;;;;;;;;;;5043501;28;20051;-63
2021/10/21 06:28:48;;;;;;;32.08;18.58;;;;;;;;;;5041884;28;20026;-64
2021/10/21 06:31:15;;;;;;;28.98;18.27;;;;;;;;;;5041016;28;20037;-65
2021/10/21 06:33:41;;;;;;;29.40;17.75;;;;;;;;;;5043102;28;20542;-66
2021/10/21 06:36:07;;;;;;;32.53;17.95;;;;;;;;;;5042172;28;20032;-67
2021/10/21 06:38:33;;;;;;;27.88;17.38;;;;;;;;;;5044133;28;20052;-66
2021/10/21 06:40:59;;;;;;;31.20;18.42;;;;;;;;;;5053727;28;20104;-64
2021/10/21 06:43:26;;;;;;;31.50;18.67;;;;;;;;;;5053257;28;20105;-66
2021/10/21 06:45:52;;;;;;;33.70;18.17;;;;;;;;;;5049882;28;20060;-66
2021/10/21 06:48:18;;;;;;;31.38;18.45;;;;;;;;;;5053424;28;20033;-63
2021/10/21 06:50:45;;;;;;;32.58;18.48;;;;;;;;;;5053963;28;20490;-64
2021/10/21 06:53:11;;;;;;;35.65;17.40;;;;;;;;;;5047935;28;20385;-67
2021/10/21 06:55:37;;;;;;;27.02;15.27;;;;;;;;;;5049956;28;20033;-64
2021/10/21 06:58:03;;;;;;;26.45;16.15;;;;;;;;;;5048980;28;20085;-63
2021/10/21 07:00:29;;;;;;;24.40;15.38;;;;;;;;;;5052895;28;20383;-67
2021/10/21 07:02:57;;;;;;;23.70;14.98;;;;;;;;;;5053200;28;20383;-65
2021/10/21 07:05:26;;;;;;;36.25;14.70;;;;;;;;;;5053147;28;20211;-65
2021/10/21 07:07:52;;;;;;;21.45;13.75;;;;;;;;;;5053233;28;20107;-66
2021/10/21 07:10:21;;;;;;;28.05;14.40;;;;;;;;;;5052880;28;20055;-65
2021/10/21 07:12:47;;;;;;;25.95;15.73;;;;;;;;;;5052424;28;20067;-65
2021/10/21 07:15:15;;;;;;;27.25;15.98;;;;;;;;;;5052500;28;20032;-64
2021/10/21 07:17:41;;;;;;;26.70;15.88;;;;;;;;;;5052784;28;20118;-67
2021/10/21 07:20:08;;;;;;;29.35;16.73;;;;;;;;;;5053051;28;20032;-65
2021/10/21 07:22:34;;;;;;;24.38;15.23;;;;;;;;;;5052558;28;20100;-65
2021/10/21 07:25:00;;;;;;;25.42;15.90;;;;;;;;;;5052616;28;20032;-64
2021/10/21 07:27:27;;;;;;;23.67;14.43;;;;;;;;;;5052361;28;20025;-65
2021/10/21 07:29:53;;;;;;;25.02;15.70;;;;;;;;;;5052511;28;20040;-65
2021/10/21 07:32:19;;;;;;;27.58;17.05;;;;;;;;;;5052342;28;20037;-64
2021/10/21 07:34:45;;;;;;;27.55;16.27;;;;;;;;;;5052567;28;20043;-64
2021/10/21 07:37:11;;;;;;;27.58;16.20;;;;;;;;;;5052695;28;20025;-64
2021/10/21 07:39:37;;;;;;;25.58;15.55;;;;;;;;;;5052277;28;20434;-64
2021/10/21 07:42:03;;;;;;;30.42;14.80;;;;;;;;;;5052433;28;20104;-64
2021/10/21 07:44:37;;;;;;;21.98;14.52;;;;;;;;;;5052209;28;20035;-64
2021/10/21 07:47:03;;;;;;;25.92;14.75;;;;;;;;;;5052124;28;20037;-64
2021/10/21 07:49:30;;;;;;;25.25;15.32;;;;;;;;;;5050848;28;20083;-64
2021/10/21 07:51:57;;;;;;;28.45;16.67;;;;;;;;;;5052190;28;20028;-64
2021/10/21 07:54:26;;;;;;;25.25;16.45;;;;;;;;;;5052355;28;20464;-65
2021/10/21 07:56:52;;;;;;;26.95;15.95;;;;;;;;;;5052059;28;20017;-67
2021/10/21 07:59:18;;;;;;;24.63;15.30;;;;;;;;;;5052235;28;20029;-66
2021/10/21 08:01:44;;;;;;;27.65;15.70;;;;;;;;;;5052067;28;20033;-64
2021/10/21 08:04:14;;;;;;;27.92;15.27;;;;;;;;;;5052022;28;20101;-64
2021/10/21 08:06:41;;;;;;;26.60;14.70;;;;;;;;;;5051739;28;20032;-64
2021/10/21 08:09:07;;;;;;;23.60;14.60;;;;;;;;;;5051692;28;20025;-64
2021/10/21 08:11:33;;;;;;;21.42;12.30;;;;;;;;;;5051422;28;20040;-67
2021/10/21 08:13:59;;;;;;;20.05;11.73;;;;;;;;;;5051522;28;20162;-66
2021/10/21 08:16:25;;;;;;;20.98;11.90;;;;;;;;;;5051670;28;20025;-66
2021/10/21 08:18:51;;;;;;;24.35;12.90;;;;;;;;;;5040699;28;20099;-66
2021/10/21 08:21:18;;;;;;;29.50;15.52;;;;;;;;;;5040315;28;20104;-65
2021/10/21 08:23:47;;;;;;;25.95;15.13;;;;;;;;;;5042333;28;20108;-63
2021/10/21 08:26:14;;;;;;;21.92;14.82;;;;;;;;;;5039737;28;20083;-62
2021/10/21 08:28:40;;;;;;;23.63;13.90;;;;;;;;;;5040609;28;20025;-64
2021/10/21 08:31:09;;;;;;;24.63;12.52;;;;;;;;;;5041211;28;20118;-63
2021/10/21 08:33:35;;;;;;;21.17;11.25;;;;;;;;;;5041082;28;20026;-67
2021/10/21 08:36:01;;;;;;;15.68;8.90;;;;;;;;;;5032245;28;20118;-66
2021/10/21 08:38:27;;;;;;;14.95;8.40;;;;;;;;;;5032062;28;20026;-66
2021/10/21 08:40:54;;;;;;;14.65;8.95;;;;;;;;;;5031158;28;20045;-64
2021/10/21 08:43:20;;;;;;;14.70;8.60;;;;;;;;;;5031073;28;20568;-64
2021/10/21 08:45:47;;;;;;;15.75;9.02;;;;;;;;;;5031808;28;20064;-64
2021/10/21 08:48:13;;;;;;;13.32;8.18;;;;;;;;;;5031326;28;20029;-65
2021/10/21 08:50:40;;;;;;;16.27;7.93;;;;;;;;;;5031227;28;20034;-67
2021/10/21 08:53:07;;;;;;;14.23;8.35;;;;;;;;;;5030920;28;20056;-67
2021/10/21 08:55:34;;;;;;;14.98;9.32;;;;;;;;;;5031224;28;20029;-66
2021/10/21 08:58:01;;;;;;;14.40;8.18;;;;;;;;;;5031072;28;20116;-65
2021/10/21 09:00:27;;;;;;;11.43;8.18;;;;;;;;;;5031016;28;20075;-66
2021/10/21 09:02:56;;;;;;;10.20;7.38;;;;;;;;;;5030647;28;20025;-66
2021/10/21 09:05:35;;;;;;;10.77;6.50;;;;;;;;;;5031021;28;20029;-68
2021/10/21 09:08:04;;;;;;;9.70;6.55;;;;;;;;;;5031045;28;20030;-66
2021/10/21 09:10:31;;;;;;;11.57;6.45;;;;;;;;;;5030950;28;20032;-64
2021/10/21 09:12:58;;;;;;;10.85;6.57;;;;;;;;;;5030644;28;20087;-61
2021/10/21 09:15:26;;;;;;;10.90;6.63;;;;;;;;;;5030169;28;20021;-65
2021/10/21 09:17:56;;;;;;;10.82;5.78;;;;;;;;;;5030107;28;20084;-63
2021/10/21 09:20:25;;;;;;;10.10;6.10;;;;;;;;;;5030723;28;20075;-63
2021/10/21 09:22:55;;;;;;;11.73;6.18;;;;;;;;;;5030439;28;20037;-66
2021/10/21 09:25:22;;;;;;;8.48;5.63;;;;;;;;;;5030420;28;20021;-63
2021/10/21 09:27:49;;;;;;;8.80;6.03;;;;;;;;;;5030588;28;20025;-65
2021/10/21 09:30:19;;;;;;;9.68;5.43;;;;;;;;;;5030493;28;20065;-63
2021/10/21 09:32:46;;;;;;;9.88;6.07;;;;;;;;;;5030593;28;20045;-65
2021/10/21 09:35:15;;;;;;;9.18;5.88;;;;;;;;;;5030267;28;20075;-62
2021/10/21 09:37:42;;;;;;;11.93;6.13;;;;;;;;;;5033966;28;20029;-62
2021/10/21 09:40:09;;;;;;;7.45;5.57;;;;;;;;;;5034616;28;20037;-62
2021/10/21 09:42:37;;;;;;;10.45;5.60;;;;;;;;;;5034431;28;20215;-63
2021/10/21 09:45:12;;;;;;;10.85;6.10;;;;;;;;;;5034035;28;20026;-66
2021/10/21 09:47:38;;;;;;;12.75;8.48;;;;;;;;;;5031771;28;20034;-65
2021/10/21 09:50:24;;;;;;;9.60;6.25;;;;;;;;;;5032700;28;20380;-65
2021/10/21 09:53:09;;;;;;;8.52;5.50;;;;;;;;;;5033717;28;20061;-65
2021/10/21 09:55:39;;;;;;;12.00;6.63;;;;;;;;;;5034019;28;20033;-67
2021/10/21 09:58:07;;;;;;;14.13;7.40;;;;;;;;;;5032560;28;20530;-66
2021/10/21 10:00:34;;;;;;;9.45;5.88;;;;;;;;;;5033202;28;20057;-67
2021/10/21 10:03:10;;;;;;;15.88;7.43;;;;;;;;;;5033520;28;20552;-65
2021/10/21 10:05:37;;;;;;;10.82;6.82;;;;;;;;;;5032619;28;20057;-64
2021/10/21 10:08:03;;;;;;;14.40;7.82;;;;;;;;;;5034103;28;20029;-65
2021/10/21 10:10:29;;;;;;;12.07;5.60;;;;;;;;;;5033780;28;20037;-64
2021/10/21 10:12:56;;;;;;;11.35;6.03;;;;;;;;;;5034325;28;20037;-66
2021/10/21 10:15:22;;;;;;;11.43;5.78;;;;;;;;;;5033817;28;20056;-62
2021/10/21 10:17:48;;;;;;;15.65;9.43;;;;;;;;;;5033824;28;20041;-67
2021/10/21 10:20:14;;;;;;;11.13;7.00;;;;;;;;;;5032849;28;20491;-63
2021/10/21 10:22:40;;;;;;;13.20;6.93;;;;;;;;;;5032408;28;20459;-65
2021/10/21 10:25:20;;;;;;;11.00;7.10;;;;;;;;;;5032264;28;20037;-66
2021/10/21 10:27:59;;;;;;;8.77;6.03;;;;;;;;;;5032702;28;20037;-62
2021/10/21 10:30:44;;;;;;;9.90;5.50;;;;;;;;;;5033474;28;20569;-66
2021/10/21 10:33:10;;;;;;;10.65;6.45;;;;;;;;;;5033310;28;20524;-66
2021/10/21 10:35:38;;;;;;;11.85;6.15;;;;;;;;;;5033449;28;20539;-65
2021/10/21 10:38:05;;;;;;;8.50;5.50;;;;;;;;;;5034000;28;20435;-60
2021/10/21 10:40:35;;;;;;;18.45;9.13;;;;;;;;;;5033433;28;20053;-66
2021/10/21 10:43:02;;;;;;;10.38;5.97;;;;;;;;;;5033413;28;20030;-66
2021/10/21 10:45:40;;;;;;;9.57;5.70;;;;;;;;;;5033169;28;20060;-68
2021/10/21 10:48:06;;;;;;;15.50;7.95;;;;;;;;;;5032304;28;20040;-67
2021/10/21 10:50:32;;;;;;;16.25;7.38;;;;;;;;;;5033140;28;20435;-63
2021/10/21 10:53:03;;;;;;;10.13;5.53;;;;;;;;;;5033313;28;20025;-66
2021/10/21 10:55:36;;;;;;;12.45;5.82;;;;;;;;;;5033057;28;20116;-66
2021/10/21 10:58:03;;;;;;;14.95;5.75;;;;;;;;;;5032945;28;20029;-65
2021/10/21 11:00:35;;;;;;;11.13;5.30;;;;;;;;;;5031649;28;20116;-66
2021/10/21 11:03:01;;;;;;;9.73;5.63;;;;;;;;;;5033292;28;20056;-67
2021/10/21 11:05:45;;;;;;;14.30;5.75;;;;;;;;;;5032910;28;20477;-65
2021/10/21 11:08:15;;;;;;;9.05;5.22;;;;;;;;;;5032636;28;20477;-66
2021/10/21 11:10:42;;;;;;;10.00;5.53;;;;;;;;;;5035091;28;20059;-61
2021/10/21 11:13:24;;;;;;;12.27;6.13;;;;;;;;;;5038079;28;20029;-64
2021/10/21 11:15:52;;;;;;;8.18;5.85;;;;;;;;;;5032723;28;20381;-65
2021/10/21 11:18:24;;;;;;;9.30;6.25;;;;;;;;;;5032156;28;20088;-66
2021/10/21 11:20:50;;;;;;;;;;;;;;;;;;5032928;28;20058;-65
2021/10/21 11:23:25;;;;;;;13.50;5.80;;;;;;;;;;5032665;28;19975;-62
2021/10/21 11:25:55;;;;;;;11.68;6.38;;;;;;;;;;5032273;28;20536;-66
2021/10/21 11:28:26;;;;;;;9.80;6.25;;;;;;;;;;5032450;28;20025;-62
2021/10/21 11:30:52;;;;;;;15.07;7.00;;;;;;;;;;5032604;28;20455;-66
2021/10/21 11:33:19;;;;;;;15.23;7.10;;;;;;;;;;5032278;28;20029;-67
2021/10/21 11:35:45;;;;;;;15.35;7.57;;;;;;;;;;5031329;28;20084;-67
2021/10/21 11:38:16;;;;;;;17.65;9.98;;;;;;;;;;5032532;28;20053;-62
2021/10/21 11:40:43;;;;;;;25.23;12.00;;;;;;;;;;5032118;28;20053;-67
2021/10/21 11:43:14;;;;;;;20.00;9.88;;;;;;;;;;5032128;28;20021;-67
2021/10/21 11:45:41;;;;;;;17.92;8.93;;;;;;;;;;5031067;28;20388;-66
2021/10/21 11:48:08;;;;;;;15.13;8.60;;;;;;;;;;5031022;28;20094;-67
2021/10/21 11:50:45;;;;;;;9.15;6.18;;;;;;;;;;5029743;28;20103;-63
2021/10/21 11:53:12;;;;;;;9.80;5.85;;;;;;;;;;5030277;28;20366;-65
2021/10/21 11:55:39;;;;;;;9.65;5.40;;;;;;;;;;5032221;28;20148;-66
2021/10/21 11:58:09;;;;;;;11.48;5.80;;;;;;;;;;5029517;28;20489;-67
2021/10/21 12:00:35;;;;;;;11.93;6.18;;;;;;;;;;5030671;28;20032;-62
2021/10/21 12:03:02;;;;;;;10.48;5.32;;;;;;;;;;5031837;28;20029;-63
2021/10/21 12:05:32;;;;;;;9.68;5.53;;;;;;;;;;5031805;28;20515;-65
2021/10/21 12:08:00;;;;;;;10.13;5.45;;;;;;;;;;5031677;28;20021;-66
2021/10/21 12:10:26;;;;;;;9.00;5.65;;;;;;;;;;5031336;28;20393;-59
2021/10/21 12:12:52;;;;;;;9.70;6.05;;;;;;;;;;5031327;28;20779;-64
2021/10/21 12:15:19;;;;;;;10.05;6.70;;;;;;;;;;5031654;28;20033;-60
2021/10/21 12:17:49;;;;;;;11.90;5.47;;;;;;;;;;5030395;28;20033;-60
2021/10/21 12:20:29;;;;;;;9.13;5.97;;;;;;;;;;5031393;28;20030;-59
2021/10/21 12:22:56;;;;;;;11.40;6.28;;;;;;;;;;5031187;28;20490;-60
2021/10/21 12:25:34;;;;;;;11.52;6.03;;;;;;;;;;5030409;28;20040;-60
2021/10/21 12:28:01;;;;;;;13.75;7.97;;;;;;;;;;5031483;28;20022;-63
2021/10/21 12:30:27;;;;;;;17.75;10.00;;;;;;;;;;5031193;28;20041;-65
2021/10/21 12:33:08;;;;;;;11.07;5.70;;;;;;;;;;5031454;28;20025;-59
2021/10/21 12:35:35;;;;;;;10.73;6.43;;;;;;;;;;5031455;28;20025;-60
2021/10/21 12:38:09;;;;;;;10.00;5.40;;;;;;;;;;5031180;28;20104;-60
2021/10/21 12:40:37;;;;;;;10.27;5.53;;;;;;;;;;5030734;28;20037;-61
2021/10/21 12:43:17;;;;;;;11.73;5.63;;;;;;;;;;5030932;28;20028;-60
2021/10/21 12:45:43;;;;;;;11.30;5.22;;;;;;;;;;5030756;28;20032;-61
2021/10/21 12:48:22;;;;;;;10.60;5.53;;;;;;;;;;5030894;28;20475;-59
2021/10/21 12:50:48;;;;;;;10.82;5.30;;;;;;;;;;5030433;28;20061;-60
2021/10/21 12:53:17;;;;;;;13.07;4.80;;;;;;;;;;5030628;28;20021;-61
2021/10/21 12:55:43;;;;;;;11.60;4.93;;;;;;;;;;5030343;28;20029;-63
2021/10/21 12:58:19;;;;;;;11.70;5.60;;;;;;;;;;5030694;28;20104;-61
2021/10/21 13:00:49;;;;;;;11.82;5.57;;;;;;;;;;5030622;28;20069;-63
2021/10/21 13:03:17;;;;;;;8.82;5.40;;;;;;;;;;5030697;28;20029;-61
2021/10/21 13:05:44;;;;;;;8.98;5.35;;;;;;;;;;5030636;28;20419;-61
2021/10/21 13:08:11;;;;;;;12.35;5.60;;;;;;;;;;5030485;28;20106;-66
2021/10/21 13:10:42;;;;;;;9.68;6.22;;;;;;;;;;5030176;28;20037;-66
2021/10/21 13:13:09;;;;;;;11.65;5.70;;;;;;;;;;5030315;28;20037;-63
2021/10/21 13:15:35;;;;;;;8.82;5.07;;;;;;;;;;5030239;28;20028;-61
2021/10/21 13:18:01;;;;;;;10.98;5.57;;;;;;;;;;5030272;28;20505;-66
2021/10/21 13:20:27;;;;;;;8.88;6.00;;;;;;;;;;5029104;28;20513;-64
2021/10/21 13:22:54;;;;;;;10.35;5.80;;;;;;;;;;5029449;28;20050;-60
2021/10/21 13:25:20;;;;;;;12.00;5.68;;;;;;;;;;5030083;28;20029;-60
2021/10/21 13:27:47;;;;;;;12.02;6.78;;;;;;;;;;5030317;28;20033;-60
2021/10/21 13:30:13;;;;;;;12.55;5.90;;;;;;;;;;5030378;28;20465;-63
2021/10/21 13:32:39;;;;;;;11.82;6.05;;;;;;;;;;5030311;28;20477;-61
2021/10/21 13:35:05;;;;;;;10.48;5.82;;;;;;;;;;5029919;28;20053;-62
2021/10/21 13:37:31;;;;;;;15.43;6.07;;;;;;;;;;5030716;28;20032;-60
2021/10/21 13:39:57;;;;;;;10.13;5.75;;;;;;;;;;5030843;28;20104;-61
2021/10/21 13:42:24;;;;;;;11.15;5.70;;;;;;;;;;5030339;28;20116;-60
2021/10/21 13:44:50;;;;;;;10.38;5.78;;;;;;;;;;5030185;28;20028;-61
2021/10/21 13:47:18;;;;;;;9.48;5.50;;;;;;;;;;5030169;28;20037;-59
2021/10/21 13:49:44;;;;;;;10.70;5.80;;;;;;;;;;5030114;28;20022;-62
2021/10/21 13:52:10;;;;;;;12.77;6.20;;;;;;;;;;5030357;28;20026;-62
2021/10/21 13:54:36;;;;;;;11.35;5.50;;;;;;;;;;5030326;28;20043;-66
2021/10/21 13:57:04;;;;;;;13.35;6.00;;;;;;;;;;5030121;28;20555;-61
2021/10/21 13:59:31;;;;;;;9.07;5.70;;;;;;;;;;5029869;28;20425;-60
2021/10/21 14:01:57;;;;;;;11.35;5.93;;;;;;;;;;5029402;28;20014;-57
2021/10/21 14:04:23;;;;;;;12.40;5.57;;;;;;;;;;5028290;28;20033;-61
2021/10/21 14:06:49;;;;;;;13.75;5.97;;;;;;;;;;5029643;28;20018;-59
2021/10/21 14:09:15;;;;;;;11.18;5.93;;;;;;;;;;5029766;28;20034;-58
2021/10/21 14:11:41;;;;;;;12.30;6.38;;;;;;;;;;5029723;28;20042;-60
2021/10/21 14:14:08;;;;;;;10.07;5.72;;;;;;;;;;5029556;28;20032;-62
2021/10/21 14:16:34;;;;;;;11.80;5.97;;;;;;;;;;5030066;28;20030;-67
2021/10/21 14:19:02;;;;;;;9.35;5.97;;;;;;;;;;5029812;28;20042;-66
2021/10/21 14:21:28;;;;;;;14.15;6.20;;;;;;;;;;5029933;28;20034;-64
2021/10/21 14:23:54;;;;;;;14.70;6.45;;;;;;;;;;5031650;28;20021;-59
2021/10/21 14:26:20;;;;;;;10.38;5.78;;;;;;;;;;5033448;28;20021;-58